Time;durP1;ratioP1;P1;durP2;ratioP2;P2;SDS_P1;SDS_P2;PMS_P1;PMS_P2;Temp;Humidity;BMP_temperature;BMP_pressure;BME280_temperature;BME280_humidity;BME280_pressure;Samples;Min_cycle;Max_cycle;Signal;HPM_P1;HPM_P2
2022/01/18 00:02:26;;;;;;;56.35;7.72;;;4.00;99.90;;;;;;5116086;28;20157;-92
2022/01/18 00:04:51;;;;;;;49.28;7.15;;;4.00;99.90;;;;;;5106231;28;20101;-90
2022/01/18 00:07:20;;;;;;;55.13;9.35;;;4.00;99.90;;;;;;5092528;28;20114;-90
2022/01/18 00:09:46;;;;;;;69.43;8.15;;;4.10;99.90;;;;;;5097473;28;20165;-93
2022/01/18 00:12:42;;;;;;;57.38;9.30;;;4.00;99.90;;;;;;5092988;28;20069;-91
2022/01/18 00:20:32;;;;;;;49.60;7.97;;;4.00;99.90;;;;;;5115954;28;20027;-92
2022/01/18 00:22:59;;;;;;;49.80;7.68;;;4.00;99.90;;;;;;5087784;28;20028;-90
2022/01/18 00:25:28;;;;;;;53.13;8.45;;;4.00;99.90;;;;;;5076662;28;20100;-89
2022/01/18 00:27:58;;;;;;;53.60;7.72;;;4.00;99.90;;;;;;5081263;28;20027;-90
2022/01/18 00:33:36;;;;;;;45.00;7.90;;;4.00;99.90;;;;;;5115849;28;20039;-88
2022/01/18 00:36:04;;;;;;;65.63;7.45;;;4.10;99.90;;;;;;5115035;28;20035;-88
2022/01/18 00:38:44;;;;;;;72.20;9.35;;;4.10;99.90;;;;;;5109681;28;20020;-91
2022/01/18 00:41:10;;;;;;;44.58;7.32;;;4.10;99.90;;;;;;5115045;28;20027;-90
2022/01/18 00:43:36;;;;;;;61.95;7.47;;;4.10;99.90;;;;;;5114770;28;20028;-90
2022/01/18 00:46:19;;;;;;;61.55;7.60;;;4.10;99.90;;;;;;5105329;28;20040;-88
2022/01/18 00:48:45;;;;;;;60.92;8.23;;;4.10;99.90;;;;;;5096159;28;20058;-91
2022/01/18 00:51:14;;;;;;;58.60;8.18;;;4.10;99.90;;;;;;5097126;28;20096;-90
2022/01/18 00:53:42;;;;;;;51.08;7.18;;;4.10;99.90;;;;;;5096346;28;20052;-91
2022/01/18 00:58:40;;;;;;;49.80;7.78;;;4.10;99.90;;;;;;5104095;28;20161;-90
2022/01/18 01:01:06;;;;;;;63.28;8.13;;;4.10;99.90;;;;;;5090702;28;20085;-90
2022/01/18 01:03:33;;;;;;;46.63;6.22;;;4.10;99.90;;;;;;5114653;28;20114;-90
2022/01/18 01:05:58;;;;;;;52.42;7.40;;;4.10;99.90;;;;;;5095184;28;20585;-89
2022/01/18 01:08:24;;;;;;;42.17;7.38;;;4.10;99.90;;;;;;5075981;28;20069;-89
2022/01/18 01:11:06;;;;;;;46.05;7.75;;;4.10;99.90;;;;;;5094548;28;20039;-90
2022/01/18 01:13:33;;;;;;;34.55;6.40;;;4.10;99.90;;;;;;5086487;28;20501;-89
2022/01/18 01:16:37;;;;;;;40.30;5.68;;;4.10;99.90;;;;;;5093946;28;20105;-89
2022/01/18 01:33:33;;;;;;;47.42;7.30;;;4.20;99.90;;;;;;5105213;28;20034;-89
2022/01/18 01:36:16;;;;;;;46.30;8.90;;;4.20;99.90;;;;;;5098802;28;20109;-90
2022/01/18 01:46:38;;;;;;;52.75;8.88;;;4.20;99.90;;;;;;5113821;28;20069;-89
2022/01/18 01:49:08;;;;;;;59.60;10.02;;;4.30;99.90;;;;;;5097015;28;20024;-89
2022/01/18 01:51:34;;;;;;;45.78;7.95;;;4.20;99.90;;;;;;5093091;28;20020;-89
2022/01/18 01:54:03;;;;;;;47.63;7.50;;;4.20;99.90;;;;;;5075166;28;20069;-90
2022/01/18 01:56:46;;;;;;;40.83;7.68;;;4.20;99.90;;;;;;5074924;28;20384;-90
2022/01/18 01:59:11;;;;;;;68.90;7.38;;;4.20;99.90;;;;;;5111571;28;20082;-90
2022/01/18 02:01:43;;;;;;;57.55;8.05;;;4.20;99.90;;;;;;5113343;28;20407;-89
2022/01/18 02:04:32;;;;;;;66.22;8.60;;;4.20;99.90;;;;;;5112787;28;20050;-91
2022/01/18 02:06:58;;;;;;;58.67;9.52;;;4.30;99.90;;;;;;5098586;28;20031;-91
2022/01/18 02:09:23;;;;;;;61.63;9.18;;;4.30;99.90;;;;;;5075017;28;20028;-89
2022/01/18 02:12:11;;;;;;;61.03;8.15;;;4.30;99.90;;;;;;5092903;28;20024;-89
2022/01/18 02:14:40;;;;;;;59.13;9.15;;;4.30;99.90;;;;;;5092987;28;20017;-89
2022/01/18 02:22:57;;;;;;;68.32;9.20;;;4.30;99.90;;;;;;5074831;28;20511;-91
2022/01/18 02:25:24;;;;;;;68.93;8.13;;;4.30;99.90;;;;;;5074825;28;20360;-90
2022/01/18 02:27:50;;;;;;;60.88;9.27;;;4.40;99.90;;;;;;5074461;28;20059;-91
2022/01/18 02:30:40;;;;;;;44.75;6.60;;;4.40;99.90;;;;;;5103216;28;20110;-90
2022/01/18 02:33:19;;;;;;;52.25;9.02;;;4.40;99.90;;;;;;5108912;28;20043;-90
2022/01/18 02:35:46;;;;;;;45.97;5.93;;;4.40;99.90;;;;;;5092986;28;20093;-89
2022/01/18 02:38:12;;;;;;;46.95;6.22;;;4.40;99.90;;;;;;5092992;28;20048;-89
2022/01/18 02:41:00;;;;;;;39.65;6.35;;;4.40;99.90;;;;;;5092376;28;20024;-90
2022/01/18 02:46:11;;;;;;;39.88;6.00;;;4.40;99.90;;;;;;5092785;28;20073;-89
2022/01/18 02:49:01;;;;;;;45.72;7.65;;;4.40;99.90;;;;;;5094046;28;20041;-90
2022/01/18 02:51:27;;;;;;;43.75;5.45;;;4.40;99.90;;;;;;5112937;28;20490;-90
2022/01/18 02:53:57;;;;;;;28.08;5.40;;;4.50;99.90;;;;;;5080756;28;20115;-90
2022/01/18 02:56:28;;;;;;;45.10;5.80;;;4.50;99.90;;;;;;5092103;28;20115;-89
2022/01/18 02:59:01;;;;;;;37.17;5.70;;;4.50;99.90;;;;;;5093538;28;20052;-88
2022/01/18 03:04:18;;;;;;;44.25;6.25;;;4.50;99.90;;;;;;5092306;28;20165;-89
2022/01/18 03:06:46;;;;;;;33.72;6.15;;;4.50;99.90;;;;;;5092185;28;20446;-89
2022/01/18 03:09:12;;;;;;;46.70;6.45;;;4.50;99.90;;;;;;5096419;28;20026;-89
2022/01/18 03:11:38;;;;;;;26.15;5.60;;;4.50;99.90;;;;;;5112404;28;20015;-92
2022/01/18 03:14:11;;;;;;;34.47;4.50;;;4.50;99.90;;;;;;5112702;28;20020;-90
2022/01/18 03:16:37;;;;;;;52.92;6.35;;;4.50;99.90;;;;;;5105339;28;20099;-90
2022/01/18 03:19:05;;;;;;;54.53;6.07;;;4.50;99.90;;;;;;5096979;28;20024;-90
2022/01/18 03:21:30;;;;;;;33.90;5.85;;;4.50;99.90;;;;;;5116247;28;20027;-89
2022/01/18 03:24:11;;;;;;;53.22;7.63;;;4.50;99.90;;;;;;5082161;28;20016;-89
2022/01/18 03:29:25;;;;;;;40.92;7.25;;;4.50;99.90;;;;;;5095681;28;20073;-89
2022/01/18 03:31:50;;;;;;;30.27;5.97;;;4.50;99.90;;;;;;5088821;28;20023;-89
2022/01/18 03:34:16;;;;;;;56.95;6.88;;;4.50;99.90;;;;;;5116150;28;20046;-89
2022/01/18 03:36:43;;;;;;;49.58;6.40;;;4.50;99.90;;;;;;5116234;28;20433;-89
2022/01/18 03:39:09;;;;;;;43.55;6.57;;;4.50;99.90;;;;;;5097818;28;20531;-89
2022/01/18 03:41:34;;;;;;;44.65;6.35;;;4.50;99.90;;;;;;5097325;28;20110;-89
2022/01/18 03:44:08;;;;;;;41.30;7.25;;;4.50;99.90;;;;;;5097247;28;20444;-90
2022/01/18 03:46:36;;;;;;;44.80;8.77;;;4.50;99.90;;;;;;5084532;28;20020;-88
2022/01/18 03:49:06;;;;;;;33.15;5.10;;;4.60;99.90;;;;;;5109530;28;20097;-89
2022/01/18 03:51:32;;;;;;;44.72;6.05;;;4.50;99.90;;;;;;5108754;28;20020;-89
2022/01/18 03:53:58;;;;;;;46.15;5.82;;;4.50;99.90;;;;;;5097722;28;20030;-89
2022/01/18 03:56:24;;;;;;;45.78;5.70;;;4.50;99.90;;;;;;5115390;28;20463;-89
2022/01/18 03:58:49;;;;;;;49.72;5.55;;;4.50;99.90;;;;;;5115575;28;20172;-89
2022/01/18 04:01:15;;;;;;;58.50;8.48;;;4.60;99.90;;;;;;5097639;28;20106;-89
2022/01/18 04:03:48;;;;;;;50.38;6.10;;;4.50;99.90;;;;;;5113602;28;20119;-88
2022/01/18 04:06:14;;;;;;;47.58;8.38;;;4.50;99.90;;;;;;5115629;28;20035;-89
2022/01/18 04:08:40;;;;;;;35.72;6.28;;;4.60;99.90;;;;;;5102518;28;20024;-90
2022/01/18 04:11:12;;;;;;;49.67;7.45;;;4.60;99.90;;;;;;5101992;28;20464;-88
2022/01/18 04:13:37;;;;;;;43.22;5.88;;;4.60;99.90;;;;;;5099428;28;20081;-88
2022/01/18 04:16:03;;;;;;;51.33;6.90;;;4.70;99.90;;;;;;5113476;28;20023;-89
2022/01/18 04:18:48;;;;;;;40.58;7.00;;;4.60;99.90;;;;;;5096952;28;20030;-90
2022/01/18 04:29:09;;;;;;;43.13;7.78;;;4.70;99.90;;;;;;5114522;28;20050;-90
2022/01/18 04:31:38;;;;;;;35.55;6.13;;;4.60;99.90;;;;;;5096456;28;20030;-88
2022/01/18 04:34:12;;;;;;;37.03;6.47;;;4.60;99.90;;;;;;5089242;28;20051;-88
2022/01/18 04:36:37;;;;;;;34.47;6.20;;;4.60;99.90;;;;;;5079211;28;20027;-90
2022/01/18 04:39:13;;;;;;;42.03;6.22;;;4.60;99.90;;;;;;5101099;28;20031;-90
2022/01/18 04:41:39;;;;;;;39.47;8.35;;;4.60;99.90;;;;;;5096271;28;20062;-89
2022/01/18 04:48:24;;;;;;;30.20;6.43;;;4.60;99.90;;;;;;5101096;28;20065;-90
2022/01/18 04:49:37;;;;;;;42.25;6.85;;;4.60;99.90;;;;;;5104030;28;20434;-90
2022/01/18 04:52:10;;;;;;;31.50;6.57;;;4.60;99.90;;;;;;5076223;28;20032;-91
2022/01/18 04:54:39;;;;;;;26.88;6.05;;;4.60;99.90;;;;;;5111488;28;20468;-90
2022/01/18 04:59:33;;;;;;;23.95;5.90;;;4.50;99.90;;;;;;5103258;28;20028;-89
2022/01/18 05:01:59;;;;;;;41.92;6.93;;;4.50;99.90;;;;;;5112970;28;20030;-89
2022/01/18 05:04:26;;;;;;;32.58;6.15;;;4.50;99.90;;;;;;5114374;28;20023;-89
2022/01/18 05:06:58;;;;;;;24.55;5.85;;;4.50;99.90;;;;;;5096270;28;20024;-90
2022/01/18 05:09:28;;;;;;;35.53;5.38;;;4.50;99.90;;;;;;5114209;28;20053;-90
2022/01/18 05:12:05;;;;;;;21.63;5.32;;;4.50;99.90;;;;;;5079542;28;20024;-89
2022/01/18 05:14:33;;;;;;;24.98;6.25;;;4.50;99.90;;;;;;5093339;28;20020;-89
2022/01/18 05:17:59;;;;;;;24.90;5.95;;;4.50;99.90;;;;;;5075718;28;20034;-89
2022/01/18 05:23:00;;;;;;;24.80;5.10;;;4.60;99.90;;;;;;5040459;28;20036;-90
2022/01/18 05:25:28;;;;;;;25.48;4.47;;;4.60;99.90;;;;;;5031260;28;20029;-89
2022/01/18 05:27:54;;;;;;;19.15;3.50;;;4.60;99.90;;;;;;5087596;28;20047;-90
2022/01/18 05:30:20;;;;;;;18.60;3.78;;;4.50;99.90;;;;;;5075173;28;20491;-88
2022/01/18 05:32:54;;;;;;;16.42;3.70;;;4.60;99.90;;;;;;5093629;28;20030;-89
2022/01/18 05:35:20;;;;;;;18.02;3.22;;;4.70;99.90;;;;;;5075852;28;20043;-89
2022/01/18 05:37:46;;;;;;;16.83;3.03;;;4.60;99.90;;;;;;5093330;28;20020;-89
2022/01/18 05:40:25;;;;;;;14.80;3.10;;;4.60;99.90;;;;;;5092507;28;20024;-89
2022/01/18 05:42:50;;;;;;;10.10;2.75;;;4.70;99.90;;;;;;5074777;28;20383;-89
2022/01/18 05:45:17;;;;;;;22.08;2.70;;;4.60;99.90;;;;;;5093251;28;20116;-90
2022/01/18 05:47:55;;;;;;;8.35;2.40;;;4.60;99.90;;;;;;5093453;28;20365;-90
2022/01/18 05:50:20;;;;;;;14.13;2.75;;;4.60;99.90;;;;;;5093052;28;20429;-89
2022/01/18 05:52:56;;;;;;;19.52;3.35;;;4.60;99.90;;;;;;5102823;28;20112;-88
2022/01/18 05:55:22;;;;;;;14.77;2.85;;;4.60;99.90;;;;;;5075107;28;20032;-89
2022/01/18 05:57:49;;;;;;;20.98;3.92;;;4.60;99.90;;;;;;5092811;28;20704;-89
2022/01/18 06:00:23;;;;;;;16.38;2.35;;;4.60;99.90;;;;;;5074933;28;20024;-89
2022/01/18 06:08:19;;;;;;;12.75;2.30;;;4.60;99.90;;;;;;5112378;28;20034;-88
2022/01/18 06:10:44;;;;;;;9.90;2.50;;;4.60;99.90;;;;;;5092489;28;20024;-89
2022/01/18 06:13:13;;;;;;;10.45;2.08;;;4.60;99.90;;;;;;5110480;28;20032;-90
2022/01/18 06:15:38;;;;;;;22.35;2.92;;;4.60;99.90;;;;;;5112507;28;20018;-88
2022/01/18 06:18:04;;;;;;;12.48;3.22;;;4.60;99.90;;;;;;5093006;28;20028;-90
2022/01/18 06:20:30;;;;;;;7.85;2.10;;;4.50;99.90;;;;;;5074765;28;20115;-90
2022/01/18 06:22:56;;;;;;;11.25;3.13;;;4.50;99.90;;;;;;5074245;28;20020;-88
2022/01/18 06:25:21;;;;;;;16.77;3.58;;;4.50;99.90;;;;;;5092196;28;20108;-90
2022/01/18 06:27:50;;;;;;;18.55;4.07;;;4.50;99.90;;;;;;5107815;28;20480;-88
2022/01/18 06:30:16;;;;;;;18.77;3.53;;;4.60;99.90;;;;;;5076923;28;20016;-88
2022/01/18 06:32:45;;;;;;;19.10;4.20;;;4.50;99.90;;;;;;5074460;28;20077;-89
2022/01/18 06:35:12;;;;;;;22.95;3.83;;;4.60;99.90;;;;;;5096799;28;20273;-89
2022/01/18 06:37:39;;;;;;;14.10;5.30;;;4.60;99.90;;;;;;5087139;28;20387;-88
2022/01/18 06:40:06;;;;;;;18.50;4.80;;;4.60;99.90;;;;;;5089725;28;20028;-88
2022/01/18 06:42:32;;;;;;;39.92;8.05;;;4.60;99.90;;;;;;5090613;28;20031;-88
2022/01/18 06:44:58;;;;;;;21.10;6.45;;;4.60;99.90;;;;;;5093696;28;20023;-88
2022/01/18 06:47:24;;;;;;;19.17;6.55;;;4.60;99.90;;;;;;5090880;28;20027;-88
2022/01/18 06:49:49;;;;;;;15.10;6.57;;;4.60;99.90;;;;;;5090768;28;20024;-87
2022/01/18 06:52:15;;;;;;;24.23;7.32;;;4.60;99.90;;;;;;5095527;28;20494;-88
2022/01/18 06:54:41;;;;;;;27.58;7.88;;;4.60;99.90;;;;;;5077671;28;20028;-87
2022/01/18 06:57:07;;;;;;;26.00;8.68;;;4.60;99.90;;;;;;5095899;28;20091;-88
2022/01/18 06:59:34;;;;;;;26.13;8.40;;;4.60;99.90;;;;;;5095837;28;20099;-87
2022/01/18 07:02:00;;;;;;;29.20;9.95;;;4.60;99.90;;;;;;5100005;28;20028;-88
2022/01/18 07:04:26;;;;;;;24.90;8.63;;;4.60;99.90;;;;;;5106866;28;20092;-87
2022/01/18 07:07:05;;;;;;;18.90;7.95;;;4.60;99.90;;;;;;5078063;28;20040;-88
2022/01/18 07:09:32;;;;;;;26.83;8.57;;;4.70;99.90;;;;;;5077148;28;20024;-87
2022/01/18 07:12:00;;;;;;;26.70;7.68;;;4.70;99.90;;;;;;5095679;28;20024;-87
2022/01/18 07:14:26;;;;;;;18.98;7.18;;;4.70;99.90;;;;;;5106773;28;20375;-87
2022/01/18 07:16:52;;;;;;;15.95;6.88;;;4.70;99.90;;;;;;5095861;28;20027;-86
2022/01/18 07:19:24;;;;;;;23.60;7.32;;;4.60;99.90;;;;;;5079088;28;20456;-86
2022/01/18 07:21:50;;;;;;;26.27;7.50;;;4.60;99.90;;;;;;5076971;28;20104;-86
2022/01/18 07:24:35;;;;;;;26.42;7.43;;;4.60;99.90;;;;;;5088789;28;20086;-86
2022/01/18 07:27:01;;;;;;;25.40;7.63;;;4.70;99.90;;;;;;5102915;28;20024;-87
2022/01/18 07:29:27;;;;;;;18.58;6.82;;;4.70;99.90;;;;;;5106518;28;20042;-86
2022/01/18 07:31:53;;;;;;;20.80;8.68;;;4.70;99.90;;;;;;5078578;28;20375;-87
2022/01/18 07:34:18;;;;;;;22.98;7.65;;;4.70;99.90;;;;;;5080638;28;20107;-87
2022/01/18 07:36:44;;;;;;;23.00;7.50;;;4.70;99.90;;;;;;5101324;28;20028;-87
2022/01/18 07:39:10;;;;;;;32.20;7.80;;;4.70;99.90;;;;;;5081997;28;20076;-87
2022/01/18 07:41:36;;;;;;;18.42;7.07;;;4.60;99.90;;;;;;5115073;28;20023;-87
2022/01/18 07:44:02;;;;;;;24.42;8.13;;;4.70;99.90;;;;;;5109029;28;20035;-86
2022/01/18 07:46:27;;;;;;;26.13;10.25;;;4.60;99.90;;;;;;5093896;28;20028;-86
2022/01/18 07:48:53;;;;;;;24.15;8.00;;;4.60;99.90;;;;;;5094984;28;20035;-86
2022/01/18 07:51:20;;;;;;;17.85;8.55;;;4.70;99.90;;;;;;5094690;28;20488;-87
2022/01/18 07:53:45;;;;;;;27.95;9.30;;;4.60;99.90;;;;;;5076004;28;20026;-86
2022/01/18 07:56:11;;;;;;;23.85;9.10;;;4.60;99.90;;;;;;5094512;28;20099;-86
2022/01/18 07:58:37;;;;;;;22.88;9.65;;;4.60;99.90;;;;;;5094046;28;20039;-86
2022/01/18 08:01:02;;;;;;;25.33;10.65;;;4.70;99.90;;;;;;5095080;28;20376;-86
2022/01/18 08:03:33;;;;;;;36.33;11.32;;;4.70;99.90;;;;;;5093504;28;20039;-87
2022/01/18 08:05:59;;;;;;;24.88;10.85;;;4.70;99.90;;;;;;5094361;28;20031;-86
2022/01/18 08:08:26;;;;;;;30.73;10.23;;;4.70;99.90;;;;;;5076510;28;20089;-86
2022/01/18 08:10:52;;;;;;;30.73;13.32;;;4.70;99.90;;;;;;5094474;28;20527;-85
2022/01/18 08:13:19;;;;;;;29.23;9.88;;;4.70;99.90;;;;;;5093997;28;20035;-86
2022/01/18 08:15:56;;;;;;;22.23;9.73;;;4.70;99.90;;;;;;5094394;28;20020;-86
2022/01/18 08:18:22;;;;;;;26.27;10.77;;;4.70;99.90;;;;;;5094477;28;20036;-87
2022/01/18 08:20:47;;;;;;;26.65;10.82;;;4.80;99.90;;;;;;5075188;28;20032;-86
2022/01/18 08:23:13;;;;;;;27.55;10.38;;;4.70;99.90;;;;;;5094354;28;20038;-87
2022/01/18 08:25:39;;;;;;;25.55;10.38;;;4.70;99.90;;;;;;5093994;28;20476;-87
2022/01/18 08:28:05;;;;;;;21.00;8.85;;;4.70;99.90;;;;;;5094009;28;20397;-86
2022/01/18 08:30:37;;;;;;;16.60;8.32;;;4.70;99.90;;;;;;5098752;28;20053;-87
2022/01/18 08:33:03;;;;;;;24.58;9.18;;;4.70;99.90;;;;;;5059792;28;20028;-87
2022/01/18 08:35:31;;;;;;;19.13;8.88;;;4.70;99.90;;;;;;5094823;28;20048;-87
2022/01/18 08:37:58;;;;;;;20.88;8.65;;;4.70;99.90;;;;;;5094120;28;20032;-87
2022/01/18 08:40:23;;;;;;;13.95;7.72;;;4.70;99.90;;;;;;5093825;28;20417;-87
2022/01/18 08:42:49;;;;;;;19.38;8.20;;;4.80;99.90;;;;;;5093922;28;20111;-87
2022/01/18 08:45:15;;;;;;;33.67;7.30;;;4.70;99.90;;;;;;5094110;28;20103;-86
2022/01/18 08:47:40;;;;;;;17.00;7.50;;;4.70;99.90;;;;;;5093545;28;20290;-87
2022/01/18 08:50:07;;;;;;;14.93;7.28;;;4.70;99.90;;;;;;5093747;28;20103;-87
2022/01/18 08:52:33;;;;;;;14.57;6.75;;;4.80;99.90;;;;;;5093793;28;20024;-87
2022/01/18 08:54:58;;;;;;;11.05;7.18;;;4.80;99.90;;;;;;5092926;28;20107;-87
2022/01/18 08:57:24;;;;;;;20.85;8.65;;;4.70;99.90;;;;;;5092794;28;20024;-87
2022/01/18 08:59:50;;;;;;;19.33;8.13;;;4.70;99.90;;;;;;5095039;28;20039;-94
2022/01/18 09:02:16;;;;;;;17.15;8.00;;;4.80;99.90;;;;;;5076378;28;20031;-94
2022/01/18 09:04:42;;;;;;;21.30;9.10;;;4.80;99.90;;;;;;5077431;28;20028;-89
2022/01/18 09:07:10;;;;;;;16.73;8.18;;;4.80;99.90;;;;;;5093943;28;20390;-88
2022/01/18 09:09:39;;;;;;;23.05;9.52;;;4.80;99.90;;;;;;5074934;28;20047;-89
2022/01/18 09:12:05;;;;;;;24.05;10.40;;;4.80;99.90;;;;;;5092920;28;20104;-87
2022/01/18 09:14:31;;;;;;;19.92;9.65;;;4.90;99.90;;;;;;5074058;28;20063;-89
2022/01/18 09:16:57;;;;;;;21.38;9.73;;;4.90;99.90;;;;;;5075240;28;20059;-89
2022/01/18 09:19:22;;;;;;;21.10;9.73;;;4.90;99.90;;;;;;5075228;28;20016;-88
2022/01/18 09:21:49;;;;;;;17.50;8.32;;;5.00;99.90;;;;;;5092990;28;20467;-90
2022/01/18 09:24:16;;;;;;;16.30;7.55;;;5.00;99.90;;;;;;5075164;28;20028;-88
2022/01/18 09:26:42;;;;;;;12.65;8.38;;;5.10;99.90;;;;;;5092926;28;20016;-88
2022/01/18 09:29:10;;;;;;;14.95;7.45;;;5.10;99.90;;;;;;5075231;28;20050;-88
2022/01/18 09:31:37;;;;;;;12.48;6.80;;;5.10;99.90;;;;;;5092979;28;20372;-88
2022/01/18 09:34:03;;;;;;;11.45;7.32;;;5.20;99.90;;;;;;5093051;28;20044;-88
2022/01/18 09:36:29;;;;;;;13.45;7.00;;;5.30;99.90;;;;;;5092967;28;20028;-88
2022/01/18 09:38:55;;;;;;;12.73;5.25;;;5.10;99.90;;;;;;5092914;28;20534;-88
2022/01/18 09:41:26;;;;;;;11.25;5.50;;;5.20;99.90;;;;;;5092800;28;20050;-88
2022/01/18 09:43:52;;;;;;;18.40;5.28;;;5.20;99.90;;;;;;5092766;28;20021;-89
2022/01/18 09:46:18;;;;;;;10.63;5.00;;;5.20;99.90;;;;;;5074704;28;20024;-88
2022/01/18 09:48:43;;;;;;;11.27;4.55;;;5.30;99.90;;;;;;5092814;28;20174;-87
2022/01/18 09:51:09;;;;;;;12.38;5.32;;;5.30;99.90;;;;;;5074511;28;20061;-88
2022/01/18 09:53:35;;;;;;;14.77;4.57;;;5.30;99.90;;;;;;5092369;28;20020;-87
2022/01/18 09:56:00;;;;;;;13.75;4.47;;;5.40;99.90;;;;;;5092394;28;20357;-94
2022/01/18 09:58:26;;;;;;;13.50;4.63;;;5.40;99.90;;;;;;5092469;28;20153;-91
2022/01/18 10:00:52;;;;;;;8.40;4.10;;;5.50;99.90;;;;;;5073713;28;20031;-91
2022/01/18 10:03:29;;;;;;;11.85;4.20;;;5.50;99.90;;;;;;5092427;28;20024;-91
2022/01/18 10:05:56;;;;;;;7.93;3.47;;;5.50;99.90;;;;;;5074116;28;20031;-90
2022/01/18 10:08:22;;;;;;;12.57;3.92;;;5.60;99.90;;;;;;5074203;28;20062;-91
2022/01/18 10:10:54;;;;;;;10.55;3.85;;;5.60;99.90;;;;;;5107648;28;20510;-91
2022/01/18 10:13:31;;;;;;;6.07;3.33;;;5.60;99.90;;;;;;5092194;28;20069;-91
2022/01/18 10:16:00;;;;;;;16.10;4.28;;;5.70;99.90;;;;;;5077705;28;20107;-92
2022/01/18 10:18:34;;;;;;;6.32;3.45;;;5.70;99.90;;;;;;5092443;28;20017;-91
2022/01/18 10:21:00;;;;;;;8.53;3.67;;;5.70;99.90;;;;;;5092385;28;20024;-91
2022/01/18 10:23:26;;;;;;;10.57;3.53;;;5.70;99.90;;;;;;5074180;28;20114;-91
2022/01/18 10:25:53;;;;;;;6.57;2.80;;;5.70;99.90;;;;;;5072661;28;20084;-92
2022/01/18 10:28:30;;;;;;;17.20;3.95;;;5.70;99.90;;;;;;5074229;28;20093;-91
2022/01/18 10:30:57;;;;;;;17.17;3.95;;;5.80;99.90;;;;;;5091747;28;20032;-90
2022/01/18 10:33:28;;;;;;;10.95;3.60;;;5.90;99.90;;;;;;5091911;28;20388;-92
2022/01/18 10:36:04;;;;;;;12.10;3.90;;;5.90;99.90;;;;;;5073709;28;20053;-91
2022/01/18 10:38:31;;;;;;;9.38;3.40;;;5.90;99.90;;;;;;5074115;28;20077;-91
2022/01/18 10:40:56;;;;;;;7.35;2.40;;;6.00;99.90;;;;;;5091423;28;20032;-93
2022/01/18 10:43:33;;;;;;;8.88;2.85;;;6.00;99.90;;;;;;5091448;28;20480;-91
2022/01/18 10:46:15;;;;;;;11.10;2.60;;;5.90;99.90;;;;;;5092059;28;20077;-92
2022/01/18 10:48:50;;;;;;;10.95;3.47;;;6.00;99.90;;;;;;5074305;28;20028;-93
2022/01/18 10:51:30;;;;;;;8.53;2.13;;;6.00;99.90;;;;;;5092260;28;20030;-92
2022/01/18 10:53:58;;;;;;;6.90;2.05;;;6.10;99.90;;;;;;5073861;28;20528;-91
2022/01/18 10:56:23;;;;;;;11.52;2.97;;;6.10;99.90;;;;;;5073739;28;20059;-92
2022/01/18 10:58:55;;;;;;;13.52;2.47;;;6.10;99.90;;;;;;5107730;28;20051;-92
2022/01/18 11:01:22;;;;;;;8.57;2.28;;;6.10;99.90;;;;;;5092217;28;20051;-91
2022/01/18 11:04:11;;;;;;;10.27;2.13;;;6.10;99.90;;;;;;5091737;28;20067;-92
2022/01/18 11:06:38;;;;;;;12.20;4.32;;;6.10;99.90;;;;;;5073175;28;20191;-92
2022/01/18 11:09:12;;;;;;;10.85;2.85;;;6.00;99.90;;;;;;5073643;28;20039;-92
2022/01/18 11:11:45;;;;;;;5.38;1.65;;;6.10;99.90;;;;;;5091373;28;20077;-91
2022/01/18 11:14:13;;;;;;;12.30;2.38;;;6.10;99.90;;;;;;5073729;28;20032;-91
2022/01/18 11:16:42;;;;;;;4.88;2.17;;;6.20;99.90;;;;;;5073587;28;20028;-91
2022/01/18 11:19:18;;;;;;;7.10;2.58;;;6.20;99.90;;;;;;5073786;28;20024;-92
2022/01/18 11:21:46;;;;;;;8.18;2.60;;;6.20;99.90;;;;;;5069251;28;20054;-92
2022/01/18 11:24:16;;;;;;;8.05;2.30;;;6.20;99.90;;;;;;5073732;28;20126;-92
2022/01/18 11:26:44;;;;;;;6.60;2.30;;;6.20;99.90;;;;;;5091548;28;20029;-91
2022/01/18 11:29:12;;;;;;;4.78;2.33;;;6.20;99.90;;;;;;5073417;28;20024;-91
2022/01/18 11:31:40;;;;;;;4.22;2.20;;;6.30;99.90;;;;;;5079418;28;20031;-91
2022/01/18 11:34:09;;;;;;;11.07;2.70;;;6.30;99.90;;;;;;5074320;28;20056;-92
2022/01/18 11:36:41;;;;;;;10.88;2.47;;;6.30;99.90;;;;;;5088182;28;20059;-93
2022/01/18 11:39:08;;;;;;;4.10;1.85;;;6.40;99.90;;;;;;5110823;28;20074;-94
2022/01/18 11:41:35;;;;;;;5.07;2.38;;;6.40;99.90;;;;;;5079623;28;20031;-92
2022/01/18 11:44:16;;;;;;;4.20;1.80;;;6.40;99.90;;;;;;5076658;28;20403;-91
2022/01/18 11:46:48;;;;;;;11.85;2.47;;;6.30;99.90;;;;;;5086324;28;20051;-92
2022/01/18 11:49:21;;;;;;;6.35;2.55;;;6.30;99.90;;;;;;5076770;28;20063;-90
2022/01/18 11:51:52;;;;;;;10.18;3.78;;;6.30;99.90;;;;;;5082890;28;20528;-92
2022/01/18 11:54:38;;;;;;;10.35;3.15;;;6.40;99.90;;;;;;5077046;28;20024;-92
2022/01/18 11:57:24;;;;;;;7.72;3.20;;;6.40;99.90;;;;;;5088586;28;20111;-92
2022/01/18 11:59:52;;;;;;;8.85;2.95;;;6.40;99.90;;;;;;5078686;28;20031;-92
2022/01/18 12:02:28;;;;;;;8.52;3.22;;;6.30;99.90;;;;;;5104216;28;20028;-92
2022/01/18 12:04:56;;;;;;;9.23;3.38;;;6.40;99.90;;;;;;5077965;28;20522;-90
2022/01/18 12:07:34;;;;;;;7.70;3.47;;;6.30;99.90;;;;;;5076617;28;20036;-92
2022/01/18 12:10:34;;;;;;;10.15;3.35;;;6.40;99.90;;;;;;5107417;27;20119;-92
2022/01/18 12:13:05;;;;;;;14.52;3.85;;;6.30;99.90;;;;;;5097529;28;20020;-91
2022/01/18 12:15:36;;;;;;;12.48;3.50;;;6.30;99.90;;;;;;5099385;28;20036;-92
2022/01/18 12:18:30;;;;;;;12.77;3.35;;;6.20;99.90;;;;;;5087615;28;20508;-92
2022/01/18 12:21:00;;;;;;;10.65;3.70;;;6.30;99.90;;;;;;5097189;28;20024;-91
2022/01/18 12:23:28;;;;;;;9.25;3.03;;;6.40;99.90;;;;;;5076171;28;20032;-91
2022/01/18 12:26:48;;;;;;;13.07;5.68;;;6.30;99.90;;;;;;5089298;28;20208;-94
2022/01/18 12:30:01;;;;;;;10.05;4.07;;;6.30;99.90;;;;;;5089904;28;20032;-95
2022/01/18 12:32:29;;;;;;;7.88;4.65;;;6.30;99.90;;;;;;5087648;28;20071;-94
2022/01/18 12:35:01;;;;;;;12.30;4.70;;;6.30;99.90;;;;;;5108351;28;20059;-95
2022/01/18 12:37:27;;;;;;;11.02;4.07;;;6.30;99.90;;;;;;5111988;27;20047;-94
2022/01/18 12:39:54;;;;;;;9.32;5.10;;;6.20;99.90;;;;;;5095304;28;20028;-94
2022/01/18 12:45:20;;;;;;;15.88;4.68;;;6.30;99.90;;;;;;5098763;28;20020;-95
2022/01/18 12:47:55;;;;;;;21.70;6.82;;;6.30;99.90;;;;;;5082747;28;20076;-94
2022/01/18 12:50:32;;;;;;;14.18;6.28;;;6.30;99.90;;;;;;5077899;28;20438;-94
2022/01/18 12:52:59;;;;;;;14.05;6.53;;;6.30;99.90;;;;;;5077242;28;20024;-95
2022/01/18 12:55:29;;;;;;;16.70;6.95;;;6.30;99.90;;;;;;5077116;28;20038;-94
2022/01/18 12:58:38;;;;;;;10.90;5.78;;;6.20;99.90;;;;;;5080740;28;20019;-94
2022/01/18 13:01:05;;;;;;;8.20;5.50;;;6.20;99.90;;;;;;5097403;28;20509;-94
2022/01/18 13:03:34;;;;;;;10.40;6.53;;;6.10;99.90;;;;;;5097487;28;20027;-95
2022/01/18 13:06:16;;;;;;;14.38;6.05;;;6.10;99.90;;;;;;5097174;28;20031;-93
2022/01/18 13:08:46;;;;;;;18.10;6.57;;;6.10;99.90;;;;;;5115489;28;20028;-94
2022/01/18 13:11:15;;;;;;;22.30;7.68;;;6.10;99.90;;;;;;5097248;28;20370;-95
2022/01/18 13:13:59;;;;;;;12.35;6.75;;;6.20;99.90;;;;;;5097178;28;20024;-95
2022/01/18 13:27:33;;;;;;;13.88;6.40;;;6.30;99.90;;;;;;5095130;28;20478;-93
2022/01/18 13:30:23;;;;;;;15.30;8.65;;;6.30;99.90;;;;;;5032672;28;20030;-94
2022/01/18 13:32:51;;;;;;;16.35;8.90;;;6.20;99.90;;;;;;5094905;28;20430;-94
2022/01/18 13:35:20;;;;;;;15.90;8.80;;;6.20;99.90;;;;;;5096803;28;20387;-94
2022/01/18 13:38:04;;;;;;;17.30;9.65;;;6.20;99.90;;;;;;5094426;28;20056;-94
2022/01/18 13:40:32;;;;;;;22.40;8.65;;;6.30;99.90;;;;;;5096521;28;20031;-93
2022/01/18 13:43:06;;;;;;;16.77;8.30;;;6.30;99.90;;;;;;5096213;28;20024;-93
2022/01/18 13:49:09;;;;;;;25.42;9.02;;;6.20;99.90;;;;;;5114074;28;20030;-94
2022/01/18 13:52:03;;;;;;;15.50;9.00;;;6.20;99.90;;;;;;5114466;28;20023;-94
2022/01/18 13:54:48;;;;;;;23.17;10.20;;;6.20;99.90;;;;;;5096466;28;20048;-94
2022/01/18 13:57:15;;;;;;;20.88;9.75;;;6.20;99.90;;;;;;5096155;28;20023;-94
2022/01/18 13:59:42;;;;;;;15.02;8.13;;;6.20;99.90;;;;;;5073344;28;20032;-93
2022/01/18 14:02:23;;;;;;;21.73;8.93;;;6.20;99.90;;;;;;5089337;28;20472;-94
2022/01/18 14:05:08;;;;;;;21.33;9.85;;;6.20;99.90;;;;;;5089904;28;20028;-95
2022/01/18 14:07:33;;;;;;;19.45;11.18;;;6.20;99.90;;;;;;5091421;28;20025;-94
2022/01/18 14:10:09;;;;;;;25.30;12.43;;;6.20;99.90;;;;;;5096313;28;20073;-94
2022/01/18 14:12:34;;;;;;;24.52;10.65;;;6.20;99.90;;;;;;5096388;28;20048;-93
2022/01/18 14:15:00;;;;;;;26.25;9.95;;;6.30;99.90;;;;;;5096224;28;20061;-94
2022/01/18 14:17:42;;;;;;;25.08;10.35;;;6.40;99.90;;;;;;5096314;28;20028;-94
2022/01/18 14:20:13;;;;;;;24.63;9.60;;;6.40;99.90;;;;;;5096332;28;20031;-95
2022/01/18 14:23:29;;;;;;;16.63;10.40;;;6.40;99.90;;;;;;5095611;28;20035;-95
2022/01/18 14:25:54;;;;;;;19.08;8.57;;;6.30;99.90;;;;;;5095896;28;20447;-94
2022/01/18 14:28:29;;;;;;;18.75;8.50;;;6.30;99.90;;;;;;5095879;28;20058;-93
2022/01/18 14:31:06;;;;;;;20.60;8.50;;;6.30;99.90;;;;;;5113973;28;20028;-94
2022/01/18 14:33:48;;;;;;;22.08;8.85;;;6.30;99.90;;;;;;5113992;28;20050;-94